Time;durP1;ratioP1;P1;durP2;ratioP2;P2;SDS_P1;SDS_P2;PMS_P1;PMS_P2;Temp;Humidity;BMP_temperature;BMP_pressure;BME280_temperature;BME280_humidity;BME280_pressure;Samples;Min_cycle;Max_cycle;Signal;HPM_P1;HPM_P2
2023/01/07 00:01:31;;;;;;;;;;;;;;;14.22;50.16;101076.63;4982564;27;99314;-65
2023/01/07 00:03:57;;;;;;;;;;;;;;;14.24;50.19;101071.75;4983726;27;114917;-67
2023/01/07 00:06:32;;;;;;;;;;;;;;;14.24;50.04;101072.56;4965845;27;116300;-66
2023/01/07 00:08:58;;;;;;;;;;;;;;;14.24;49.99;101078.00;4968261;27;99495;-66
2023/01/07 00:11:35;;;;;;;;;;;;;;;14.25;50.24;101073.38;4979663;27;121917;-69
2023/01/07 00:14:01;;;;;;;;;;;;;;;14.25;50.36;101076.91;4985491;27;109913;-68
2023/01/07 00:16:29;;;;;;;;;;;;;;;14.27;50.44;101070.41;4985057;27;124047;-69
2023/01/07 00:18:55;;;;;;;;;;;;;;;14.26;50.01;101075.00;5000853;27;117425;-65
2023/01/07 00:21:22;;;;;;;;;;;;;;;14.28;50.29;101067.41;5017002;27;122810;-66
2023/01/07 00:23:48;;;;;;;;;;;;;;;14.28;50.27;101066.59;4983025;27;119553;-69
2023/01/07 00:26:18;;;;;;;;;;;;;;;14.28;50.29;101069.31;4965194;27;126498;-67
2023/01/07 00:28:45;;;;;;;;;;;;;;;14.29;50.12;101069.03;4965970;27;98007;-69
2023/01/07 00:31:16;;;;;;;;;;;;;;;14.29;50.14;101066.31;4982844;27;124843;-69
2023/01/07 00:33:50;;;;;;;;;;;;;;;14.30;50.18;101070.63;4982039;27;108272;-68
2023/01/07 00:36:16;;;;;;;;;;;;;;;14.30;50.19;101072.53;4985016;27;99516;-66
2023/01/07 00:38:42;;;;;;;;;;;;;;;14.30;50.27;101070.63;4985280;27;97879;-65
2023/01/07 00:41:08;;;;;;;;;;;;;;;14.30;49.84;101059.00;4967024;27;127849;-66
2023/01/07 00:43:34;;;;;;;;;;;;;;;14.31;50.20;101056.03;4982434;27;125845;-66
2023/01/07 00:46:00;;;;;;;;;;;;;;;14.32;50.12;101056.81;4979467;27;129201;-66
2023/01/07 00:48:26;;;;;;;;;;;;;;;14.33;50.34;101055.72;5017602;27;117427;-67
2023/01/07 00:50:52;;;;;;;;;;;;;;;14.33;50.23;101058.44;5000800;27;117054;-68
2023/01/07 00:53:18;;;;;;;;;;;;;;;14.33;50.37;101051.13;4977255;27;99591;-66
2023/01/07 00:55:44;;;;;;;;;;;;;;;14.34;50.37;101057.34;4960830;27;123852;-66
2023/01/07 00:58:25;;;;;;;;;;;;;;;14.35;50.33;101056.28;4957485;27;116956;-66
2023/01/07 01:00:55;;;;;;;;;;;;;;;14.32;50.23;101048.69;4961768;27;121772;-67
2023/01/07 01:03:21;;;;;;;;;;;;;;;14.33;50.09;101053.00;4977615;27;104325;-65
2023/01/07 01:05:47;;;;;;;;;;;;;;;14.33;50.34;101053.81;4943548;27;99661;-67
2023/01/07 01:08:13;;;;;;;;;;;;;;;14.33;50.00;101051.13;4942827;27;98324;-68
2023/01/07 01:10:39;;;;;;;;;;;;;;;14.33;50.17;101048.41;4957457;27;128922;-68
2023/01/07 01:13:05;;;;;;;;;;;;;;;14.31;50.39;101056.03;4947261;27;108115;-68
2023/01/07 01:15:31;;;;;;;;;;;;;;;14.32;50.00;101059.53;4964711;27;112763;-68
2023/01/07 01:17:57;;;;;;;;;;;;;;;14.30;50.02;101048.13;4974446;27;120188;-66
2023/01/07 01:20:23;;;;;;;;;;;;;;;14.31;50.20;101052.50;4977831;27;128237;-68
2023/01/07 01:22:49;;;;;;;;;;;;;;;14.30;50.29;101061.69;4963147;27;128623;-68
2023/01/07 01:25:15;;;;;;;;;;;;;;;14.29;50.40;101063.59;4958177;27;129958;-69
2023/01/07 01:27:41;;;;;;;;;;;;;;;14.29;50.25;101063.59;4944450;27;97994;-67
2023/01/07 01:30:07;;;;;;;;;;;;;;;14.29;50.06;101060.09;4961880;27;126572;-66
2023/01/07 01:32:33;;;;;;;;;;;;;;;14.28;49.98;101056.56;4963349;27;110689;-66
2023/01/07 01:34:59;;;;;;;;;;;;;;;14.29;49.96;101057.38;4946379;27;126670;-66
2023/01/07 01:37:25;;;;;;;;;;;;;;;14.30;49.96;101056.28;4947630;27;116477;-69
2023/01/07 01:39:51;;;;;;;;;;;;;;;14.30;50.29;101053.56;4945707;27;98054;-68
2023/01/07 01:42:20;;;;;;;;;;;;;;;14.30;49.90;101053.56;4961347;27;128509;-66
2023/01/07 01:44:49;;;;;;;;;;;;;;;14.31;50.04;101056.03;4962620;27;124043;-66
2023/01/07 01:47:27;;;;;;;;;;;;;;;14.32;50.20;101054.13;4975994;27;98145;-66
2023/01/07 01:50:01;;;;;;;;;;;;;;;14.31;50.36;101053.31;4946373;27;123606;-66
2023/01/07 01:52:35;;;;;;;;;;;;;;;14.32;50.05;101051.41;4990724;27;98302;-66
2023/01/07 01:55:01;;;;;;;;;;;;;;;14.34;50.18;101049.22;4983187;27;97929;-66
2023/01/07 01:57:29;;;;;;;;;;;;;;;14.33;50.30;101034.84;4983862;27;98092;-69
2023/01/07 01:59:55;;;;;;;;;;;;;;;14.35;50.02;101045.44;4983295;27;98409;-68
2023/01/07 02:02:24;;;;;;;;;;;;;;;14.34;50.24;101036.47;5001087;27;128923;-66
2023/01/07 02:04:50;;;;;;;;;;;;;;;14.35;49.95;101040.00;4970037;27;121211;-68
2023/01/07 02:07:16;;;;;;;;;;;;;;;14.36;49.94;101041.63;4987793;27;98014;-66
2023/01/07 02:09:43;;;;;;;;;;;;;;;14.37;50.32;101041.31;4984834;27;99473;-66
2023/01/07 02:12:24;;;;;;;;;;;;;;;14.38;49.93;101040.25;4985863;27;121875;-66
2023/01/07 02:14:58;;;;;;;;;;;;;;;14.40;50.19;101034.53;5005143;27;98098;-66
2023/01/07 02:17:48;;;;;;;;;;;;;;;14.40;50.32;101046.19;5003842;27;99379;-66
2023/01/07 02:20:38;;;;;;;;;;;;;;;14.41;50.22;101039.69;5004658;27;98510;-69
2023/01/07 02:23:10;;;;;;;;;;;;;;;14.42;49.94;101035.91;5003094;27;98565;-69
2023/01/07 02:26:11;;;;;;;;;;;;;;;14.44;50.20;101043.75;5022128;27;98422;-66
2023/01/07 02:29:07;;;;;;;;;;;;;;;14.44;50.12;101030.19;4988823;27;98262;-66
2023/01/07 02:32:11;;;;;;;;;;;;;;;14.46;49.91;101030.69;5003514;27;108799;-66
2023/01/07 02:34:57;;;;;;;;;;;;;;;14.47;50.17;101024.22;5021194;27;98473;-69
2023/01/07 02:37:44;;;;;;;;;;;;;;;14.48;50.01;101028.53;4985440;27;98573;-67
2023/01/07 02:40:19;;;;;;;;;;;;;;;14.48;50.22;101023.91;5017558;27;98083;-68
2023/01/07 02:42:45;;;;;;;;;;;;;;;14.49;50.26;101009.28;4986132;27;98226;-68
2023/01/07 02:45:18;;;;;;;;;;;;;;;14.51;50.06;101016.34;5021922;27;98363;-69
2023/01/07 02:47:48;;;;;;;;;;;;;;;14.53;50.36;101022.28;4984098;27;106853;-69
2023/01/07 02:50:14;;;;;;;;;;;;;;;14.53;49.99;101009.53;4984958;27;112814;-69
2023/01/07 02:52:40;;;;;;;;;;;;;;;14.53;49.99;101014.97;4969535;27;105490;-66
2023/01/07 02:55:20;;;;;;;;;;;;;;;14.54;50.12;101013.91;4966692;27;119536;-69
2023/01/07 02:57:52;;;;;;;;;;;;;;;14.55;50.00;101015.50;4972517;27;97972;-68
2023/01/07 03:00:43;;;;;;;;;;;;;;;14.56;50.50;101014.41;4999808;27;98171;-66
2023/01/07 03:03:27;;;;;;;;;;;;;;;14.56;50.05;101016.31;4988613;27;100125;-68
2023/01/07 03:06:20;;;;;;;;;;;;;;;14.57;50.17;101016.03;4999703;27;100391;-66
2023/01/07 03:09:03;;;;;;;;;;;;;;;14.59;50.50;101018.47;4995029;27;99907;-68
2023/01/07 03:11:35;;;;;;;;;;;;;;;14.60;50.00;101017.38;4985644;27;99634;-66
2023/01/07 03:14:13;;;;;;;;;;;;;;;14.60;50.08;101018.19;4983725;27;99895;-68
2023/01/07 03:16:40;;;;;;;;;;;;;;;14.61;49.97;101016.28;4967786;27;119243;-69
2023/01/07 03:19:16;;;;;;;;;;;;;;;14.61;50.39;101016.28;4985278;27;99777;-68
2023/01/07 03:21:42;;;;;;;;;;;;;;;14.60;49.99;101015.47;5002285;27;98265;-69
2023/01/07 03:24:08;;;;;;;;;;;;;;;14.60;49.96;101012.75;4982291;27;128095;-67
2023/01/07 03:26:41;;;;;;;;;;;;;;;14.61;50.24;101013.56;4968987;27;118254;-68
2023/01/07 03:29:07;;;;;;;;;;;;;;;14.62;49.90;101015.19;4984135;27;99289;-65
2023/01/07 03:31:33;;;;;;;;;;;;;;;14.61;50.11;101019.78;4984516;27;114577;-68
2023/01/07 03:34:05;;;;;;;;;;;;;;;14.62;50.24;101017.91;4966302;27;99849;-65
2023/01/07 03:36:36;;;;;;;;;;;;;;;14.61;50.12;101019.78;4982202;27;126295;-68
2023/01/07 03:39:02;;;;;;;;;;;;;;;14.63;49.83;101016.81;4968115;27;98108;-65
2023/01/07 03:44:12;;;;;;;;;;;;;;;14.64;50.24;101005.69;4988902;27;98303;-69
2023/01/07 03:46:38;;;;;;;;;;;;;;;14.64;49.88;101002.16;4981211;27;128023;-68
2023/01/07 03:49:04;;;;;;;;;;;;;;;14.64;50.01;101004.88;4984551;27;127859;-65
2023/01/07 03:51:30;;;;;;;;;;;;;;;14.63;50.31;101004.06;4967207;27;117144;-65
2023/01/07 03:53:56;;;;;;;;;;;;;;;14.63;50.07;100998.63;4970725;27;111322;-69
2023/01/07 03:56:21;;;;;;;;;;;;;;;14.63;49.94;100990.50;4964739;27;128885;-65
2023/01/07 03:58:47;;;;;;;;;;;;;;;14.63;49.98;100992.41;4987456;27;127923;-69
2023/01/07 04:01:13;;;;;;;;;;;;;;;14.62;50.23;100988.03;4970535;27;117921;-67
2023/01/07 04:03:39;;;;;;;;;;;;;;;14.63;49.97;100987.78;4986473;27;127512;-69
2023/01/07 04:06:05;;;;;;;;;;;;;;;14.63;50.09;100989.69;4982153;27;128406;-67
2023/01/07 04:08:31;;;;;;;;;;;;;;;14.63;49.97;100989.69;5000440;27;126993;-65
2023/01/07 04:10:57;;;;;;;;;;;;;;;14.64;50.12;100988.59;4969340;27;105744;-65
2023/01/07 04:13:23;;;;;;;;;;;;;;;14.64;49.95;100980.44;4988083;27;127958;-68
2023/01/07 04:15:49;;;;;;;;;;;;;;;14.63;50.16;100976.13;4986411;27;108375;-65
2023/01/07 04:18:15;;;;;;;;;;;;;;;14.63;50.09;100978.84;4967006;27;126694;-65
2023/01/07 04:20:46;;;;;;;;;;;;;;;14.62;50.12;100979.91;4984119;27;117105;-65
2023/01/07 04:23:13;;;;;;;;;;;;;;;14.62;50.25;100974.50;4980904;27;111800;-65
2023/01/07 04:25:40;;;;;;;;;;;;;;;14.60;49.89;100974.78;4987393;27;105226;-65
2023/01/07 04:28:06;;;;;;;;;;;;;;;14.60;50.25;100980.19;4998002;27;100637;-67
2023/01/07 04:30:32;;;;;;;;;;;;;;;14.60;49.99;100979.41;4964696;27;105561;-68
2023/01/07 04:32:58;;;;;;;;;;;;;;;14.58;50.23;100973.44;4987588;27;98536;-69
2023/01/07 04:35:24;;;;;;;;;;;;;;;14.58;50.20;100973.44;4968031;27;114125;-69
2023/01/07 04:37:50;;;;;;;;;;;;;;;14.57;50.30;100978.03;4996948;27;128031;-65
2023/01/07 04:40:16;;;;;;;;;;;;;;;14.56;50.17;100973.72;4985983;27;116859;-66
2023/01/07 04:42:42;;;;;;;;;;;;;;;14.56;50.04;100971.00;4984876;27;128773;-68
2023/01/07 04:45:08;;;;;;;;;;;;;;;14.54;50.02;100970.50;4972139;27;128680;-68
2023/01/07 04:47:34;;;;;;;;;;;;;;;14.55;50.14;100971.31;4996678;27;121717;-69
2023/01/07 04:50:00;;;;;;;;;;;;;;;14.54;50.25;100969.66;5000983;27;118132;-65
2023/01/07 04:52:26;;;;;;;;;;;;;;;14.52;50.08;100969.94;4982464;27;128111;-67
2023/01/07 04:54:52;;;;;;;;;;;;;;;14.53;50.02;100968.03;4980862;27;127630;-65
2023/01/07 04:57:18;;;;;;;;;;;;;;;14.50;50.09;100966.69;4964394;27;129126;-68
2023/01/07 04:59:44;;;;;;;;;;;;;;;14.48;50.07;100966.97;4977704;27;114798;-65
2023/01/07 05:02:09;;;;;;;;;;;;;;;14.48;50.13;100966.97;4963838;27;127105;-65
2023/01/07 05:04:35;;;;;;;;;;;;;;;14.47;50.06;100959.13;4982930;27;127239;-68
2023/01/07 05:07:01;;;;;;;;;;;;;;;14.45;49.85;100948.53;4982897;27;122075;-65
2023/01/07 05:09:27;;;;;;;;;;;;;;;14.45;49.92;100953.16;4964639;27;117639;-67
2023/01/07 05:11:53;;;;;;;;;;;;;;;14.44;50.27;100954.25;4963475;27;128961;-69
2023/01/07 05:14:19;;;;;;;;;;;;;;;14.43;50.29;100952.63;4968696;27;128871;-69
2023/01/07 05:16:45;;;;;;;;;;;;;;;14.42;49.98;100953.69;4967045;27;126824;-69
2023/01/07 05:19:11;;;;;;;;;;;;;;;14.40;50.29;100954.00;4999781;27;98050;-65
2023/01/07 05:21:37;;;;;;;;;;;;;;;14.39;49.96;100957.81;4983696;27;98297;-68
2023/01/07 05:24:03;;;;;;;;;;;;;;;14.38;50.33;100952.66;4978358;27;121620;-65
2023/01/07 05:26:29;;;;;;;;;;;;;;;14.37;50.20;100954.53;4981110;27;127695;-69
2023/01/07 05:28:55;;;;;;;;;;;;;;;14.35;50.39;100956.75;4964130;27;99222;-68
2023/01/07 05:31:21;;;;;;;;;;;;;;;14.36;50.28;100952.13;4965929;27;129727;-65
2023/01/07 05:33:47;;;;;;;;;;;;;;;14.35;50.01;100947.81;4998314;27;98461;-66
2023/01/07 05:36:12;;;;;;;;;;;;;;;14.34;50.44;100955.09;4982227;27;127731;-66
2023/01/07 05:38:39;;;;;;;;;;;;;;;14.33;50.37;100949.97;4986423;27;110170;-69
2023/01/07 05:41:05;;;;;;;;;;;;;;;14.32;50.02;100949.16;4986709;27;98472;-65
2023/01/07 05:43:31;;;;;;;;;;;;;;;14.33;50.10;100955.41;5003071;27;98678;-69
2023/01/07 05:45:57;;;;;;;;;;;;;;;14.33;50.35;100948.06;4958002;27;127689;-66
2023/01/07 05:48:23;;;;;;;;;;;;;;;14.34;50.08;100949.69;4982805;27;98283;-66
2023/01/07 05:50:49;;;;;;;;;;;;;;;14.35;50.52;100950.50;4980286;27;112634;-66
2023/01/07 05:53:15;;;;;;;;;;;;;;;14.36;50.28;100952.13;4996579;27;128632;-66
2023/01/07 05:55:41;;;;;;;;;;;;;;;14.35;50.10;100951.31;4984673;27;117152;-68
2023/01/07 05:58:07;;;;;;;;;;;;;;;14.36;50.09;100955.66;4987534;27;98290;-68
2023/01/07 06:00:35;;;;;;;;;;;;;;;14.38;50.30;100952.66;4983610;27;127944;-69
2023/01/07 06:03:01;;;;;;;;;;;;;;;14.38;50.26;100952.66;4983996;27;99642;-66
2023/01/07 06:05:27;;;;;;;;;;;;;;;14.39;50.28;100948.88;4984478;27;117241;-66
2023/01/07 06:07:53;;;;;;;;;;;;;;;14.39;50.14;100949.66;5003649;27;99163;-69
2023/01/07 06:10:19;;;;;;;;;;;;;;;14.40;50.05;100945.84;5001287;27;127321;-67
2023/01/07 06:12:45;;;;;;;;;;;;;;;14.41;50.07;100952.09;4986338;27;127004;-67
2023/01/07 06:15:11;;;;;;;;;;;;;;;14.40;50.21;100951.28;4969028;27;128043;-67
2023/01/07 06:17:37;;;;;;;;;;;;;;;14.41;50.16;100943.94;4969193;27;109514;-68
2023/01/07 06:20:03;;;;;;;;;;;;;;;14.41;50.07;100947.47;5000476;27;128098;-68
2023/01/07 06:22:29;;;;;;;;;;;;;;;14.41;50.13;100947.47;4983007;27;119104;-65
2023/01/07 06:24:55;;;;;;;;;;;;;;;14.42;50.30;100949.13;4965365;27;111923;-66
2023/01/07 06:27:21;;;;;;;;;;;;;;;14.43;50.04;100952.63;4969695;27;116386;-69
2023/01/07 06:29:47;;;;;;;;;;;;;;;14.42;50.41;100943.69;4976918;27;128987;-66
2023/01/07 06:32:13;;;;;;;;;;;;;;;14.42;50.02;100951.81;4981518;27;126015;-69
2023/01/07 06:34:39;;;;;;;;;;;;;;;14.43;49.99;100944.50;4995153;27;126081;-69
2023/01/07 06:37:05;;;;;;;;;;;;;;;14.43;49.96;100950.72;4966842;27;117887;-66
2023/01/07 06:39:30;;;;;;;;;;;;;;;14.43;50.02;100955.34;4998250;27;126786;-67
2023/01/07 06:41:56;;;;;;;;;;;;;;;14.44;50.07;100951.53;4983642;27;128791;-65
2023/01/07 06:44:22;;;;;;;;;;;;;;;14.44;50.00;100946.91;4983658;27;98141;-69
2023/01/07 06:46:48;;;;;;;;;;;;;;;14.45;49.98;100945.00;4981111;27;117607;-66
2023/01/07 06:49:14;;;;;;;;;;;;;;;14.45;49.92;100950.44;4965962;27;98546;-68
2023/01/07 06:51:40;;;;;;;;;;;;;;;14.46;50.17;100960.19;4981610;27;126589;-69
2023/01/07 06:54:06;;;;;;;;;;;;;;;14.46;50.08;100957.47;4962086;27;127234;-67
2023/01/07 06:56:32;;;;;;;;;;;;;;;14.46;50.25;100958.31;4981763;27;116794;-69
2023/01/07 06:58:58;;;;;;;;;;;;;;;14.47;50.01;100959.91;4964603;27;127900;-66
2023/01/07 07:01:24;;;;;;;;;;;;;;;14.48;50.25;100964.25;4964936;27;127665;-66
2023/01/07 07:03:50;;;;;;;;;;;;;;;14.48;49.84;100964.25;4980886;27;127291;-66
2023/01/07 07:06:15;;;;;;;;;;;;;;;14.49;49.95;100963.19;4980845;27;116607;-66
2023/01/07 07:08:41;;;;;;;;;;;;;;;14.51;49.96;100968.34;4979221;27;129445;-66
2023/01/07 07:11:07;;;;;;;;;;;;;;;14.51;50.00;100964.81;4964116;27;129296;-67
2023/01/07 07:13:33;;;;;;;;;;;;;;;14.52;50.28;100967.25;4966206;27;98184;-68
2023/01/07 07:15:59;;;;;;;;;;;;;;;14.53;50.34;100978.91;4980549;27;118058;-67
2023/01/07 07:18:26;;;;;;;;;;;;;;;14.53;50.25;100979.69;4963899;27;115358;-66
2023/01/07 07:20:52;;;;;;;;;;;;;;;14.54;50.37;100972.38;4980307;27;98458;-65
2023/01/07 07:23:18;;;;;;;;;;;;;;;14.53;49.87;100971.56;4997166;27;126768;-63
2023/01/07 07:25:44;;;;;;;;;;;;;;;14.56;49.99;100978.34;4980584;27;117124;-67
2023/01/07 07:28:09;;;;;;;;;;;;;;;14.56;50.13;100978.34;4980747;27;127767;-68
2023/01/07 07:30:36;;;;;;;;;;;;;;;14.57;50.19;100974.53;4982621;27;124215;-66
2023/01/07 07:33:03;;;;;;;;;;;;;;;14.58;50.16;100981.56;4964018;27;99904;-64
2023/01/07 07:35:29;;;;;;;;;;;;;;;14.58;50.11;100979.69;4982606;27;103692;-67
2023/01/07 07:37:55;;;;;;;;;;;;;;;14.60;50.13;100979.41;4998659;27;98465;-68
2023/01/07 07:40:21;;;;;;;;;;;;;;;14.60;49.99;100980.19;4963494;27;130845;-64
2023/01/07 07:42:47;;;;;;;;;;;;;;;14.62;50.15;100983.47;4965318;27;128288;-64
2023/01/07 07:45:15;;;;;;;;;;;;;;;14.62;50.06;100972.59;4963713;27;115853;-68
2023/01/07 07:47:41;;;;;;;;;;;;;;;14.64;49.91;100973.13;4981760;27;99595;-68
2023/01/07 07:50:07;;;;;;;;;;;;;;;14.66;50.09;100970.16;4978026;27;124739;-67
2023/01/07 07:52:33;;;;;;;;;;;;;;;14.67;50.14;100975.28;4957315;27;122055;-68
2023/01/07 07:54:59;;;;;;;;;;;;;;;14.67;50.13;100978.00;4964644;27;116943;-64
2023/01/07 07:57:25;;;;;;;;;;;;;;;14.69;49.92;100980.41;4980500;27;128448;-68
2023/01/07 07:59:51;;;;;;;;;;;;;;;14.70;50.05;100974.72;4951676;27;122434;-65
2023/01/07 08:02:18;;;;;;;;;;;;;;;14.72;49.93;100975.22;4963789;27;127113;-67
2023/01/07 08:04:44;;;;;;;;;;;;;;;14.76;49.84;100975.47;4966915;27;98059;-69
2023/01/07 08:07:11;;;;;;;;;;;;;;;14.78;49.96;100970.59;4966843;27;102835;-65
2023/01/07 08:09:37;;;;;;;;;;;;;;;14.81;49.87;100975.44;4966790;27;100631;-66
2023/01/07 08:12:03;;;;;;;;;;;;;;;14.85;49.83;100972.97;4963778;27;98016;-66
2023/01/07 08:14:29;;;;;;;;;;;;;;;14.88;50.11;100980.53;4964217;27;111813;-69
2023/01/07 08:16:54;;;;;;;;;;;;;;;14.92;49.82;100970.75;4945775;27;129470;-65
2023/01/07 08:19:20;;;;;;;;;;;;;;;14.95;49.67;100978.31;4968288;27;128747;-69
2023/01/07 08:21:47;;;;;;;;;;;;;;;15.00;49.79;100980.19;4965358;27;126750;-68
2023/01/07 08:24:14;;;;;;;;;;;;;;;15.04;49.71;100981.22;4963223;27;98304;-69
2023/01/07 08:26:40;;;;;;;;;;;;;;;15.10;49.84;100977.41;4977895;27;118772;-66
2023/01/07 08:29:06;;;;;;;;;;;;;;;15.16;49.93;100984.38;4962219;27;100412;-63
2023/01/07 08:31:31;;;;;;;;;;;;;;;15.23;49.58;100980.25;4981749;27;126324;-66
2023/01/07 08:33:57;;;;;;;;;;;;;;;15.31;49.40;100978.00;4977185;27;116463;-68
2023/01/07 08:36:23;;;;;;;;;;;;;;;15.35;49.66;100969.00;4962466;27;123100;-69
2023/01/07 08:38:50;;;;;;;;;;;;;;;15.41;49.47;100977.91;4964143;27;130199;-69
2023/01/07 08:41:16;;;;;;;;;;;;;;;15.42;49.42;100964.03;4983231;27;98163;-66
2023/01/07 08:43:43;;;;;;;;;;;;;;;15.46;49.60;100964.28;4947380;27;117649;-70
2023/01/07 08:46:10;;;;;;;;;;;;;;;15.51;49.51;100958.78;4961398;27;99405;-66
2023/01/07 08:48:37;;;;;;;;;;;;;;;15.60;49.53;100957.06;4981536;27;98491;-66
2023/01/07 08:51:03;;;;;;;;;;;;;;;15.73;49.38;100961.03;4964627;27;98036;-69
2023/01/07 08:53:29;;;;;;;;;;;;;;;15.93;48.89;100958.03;4965061;27;111316;-69
2023/01/07 08:55:55;;;;;;;;;;;;;;;16.11;49.02;100953.75;4980681;27;115295;-68
2023/01/07 08:58:21;;;;;;;;;;;;;;;16.17;48.90;100947.13;4984970;27;103790;-65
2023/01/07 09:00:47;;;;;;;;;;;;;;;16.21;49.12;100947.34;4979135;27;126666;-67
2023/01/07 09:03:13;;;;;;;;;;;;;;;16.36;48.96;100935.44;4999707;27;117523;-69
2023/01/07 09:05:39;;;;;;;;;;;;;;;16.51;48.89;100932.50;4979652;27;99629;-68
2023/01/07 09:08:05;;;;;;;;;;;;;;;16.68;48.71;100937.41;4966459;27;127771;-65
2023/01/07 09:10:31;;;;;;;;;;;;;;;17.36;48.00;100930.53;4983919;27;100142;-65
2023/01/07 09:12:57;;;;;;;;;;;;;;;17.95;47.56;100936.19;4985497;27;118497;-66
2023/01/07 09:15:23;;;;;;;;;;;;;;;18.40;47.50;100945.31;4985531;27;98922;-70
2023/01/07 09:17:48;;;;;;;;;;;;;;;18.68;47.22;100931.53;4987588;27;127630;-68
2023/01/07 09:20:14;;;;;;;;;;;;;;;18.66;47.81;100931.84;4986671;27;115102;-68
2023/01/07 09:22:40;;;;;;;;;;;;;;;18.88;47.34;100928.34;4976375;27;98129;-69
2023/01/07 09:25:07;;;;;;;;;;;;;;;19.21;47.52;100923.38;4986056;27;128485;-67
2023/01/07 09:27:33;;;;;;;;;;;;;;;19.54;47.13;100923.84;5001342;27;116979;-66
2023/01/07 09:29:59;;;;;;;;;;;;;;;19.44;47.61;100929.56;4987908;27;99842;-67
2023/01/07 09:32:25;;;;;;;;;;;;;;;19.66;47.36;100936.94;4989092;27;98565;-67
2023/01/07 09:34:51;;;;;;;;;;;;;;;19.76;47.52;100927.63;5002911;27;123630;-67
2023/01/07 09:37:17;;;;;;;;;;;;;;;19.85;47.52;100928.47;4987327;27;114951;-67
2023/01/07 09:39:43;;;;;;;;;;;;;;;19.85;47.54;100923.00;4989202;27;97923;-67
2023/01/07 09:42:24;;;;;;;;;;;;;;;19.88;47.75;100925.06;4974691;27;98278;-67
2023/01/07 09:44:59;;;;;;;;;;;;;;;19.94;47.66;100920.28;4983307;27;99627;-69
2023/01/07 09:47:27;;;;;;;;;;;;;;;19.99;47.80;100922.84;4962127;27;97971;-67
2023/01/07 09:49:56;;;;;;;;;;;;;;;19.99;47.92;100917.38;4991891;27;98082;-69
2023/01/07 09:52:27;;;;;;;;;;;;;;;19.96;48.01;100905.13;4979922;27;98209;-67
2023/01/07 09:54:57;;;;;;;;;;;;;;;19.90;48.14;100909.16;4979751;27;128730;-68
2023/01/07 09:57:25;;;;;;;;;;;;;;;19.83;48.29;100903.34;4992671;27;109926;-68
2023/01/07 09:59:51;;;;;;;;;;;;;;;19.78;48.40;100895.31;4963685;27;98181;-69
2023/01/07 10:02:38;;;;;;;;;;;;;;;19.67;48.54;100897.53;4995562;27;117062;-69
2023/01/07 10:05:15;;;;;;;;;;;;;;;19.56;48.61;100909.84;4993603;27;98234;-68
2023/01/07 10:08:08;;;;;;;;;;;;;;;19.46;48.88;100899.22;4991355;27;99353;-68
2023/01/07 10:10:45;;;;;;;;;;;;;;;19.34;48.99;100892.41;4962769;27;104822;-68
2023/01/07 10:13:39;;;;;;;;;;;;;;;19.26;49.11;100889.66;4994654;27;98241;-69
2023/01/07 10:16:31;;;;;;;;;;;;;;;19.16;48.88;100879.78;4979347;27;99898;-68
2023/01/07 10:19:19;;;;;;;;;;;;;;;19.08;48.97;100884.09;4989449;27;98691;-69
2023/01/07 10:22:01;;;;;;;;;;;;;;;19.02;48.98;100877.16;4979912;27;99418;-68
2023/01/07 10:24:31;;;;;;;;;;;;;;;18.97;49.18;100874.56;4981088;27;98149;-68
2023/01/07 10:27:02;;;;;;;;;;;;;;;18.92;48.88;100880.16;4975711;27;98652;-70
2023/01/07 10:29:30;;;;;;;;;;;;;;;18.83;49.09;100871.94;4978036;27;113620;-68
2023/01/07 10:31:57;;;;;;;;;;;;;;;18.74;49.39;100862.06;4992921;27;99615;-69
2023/01/07 10:34:30;;;;;;;;;;;;;;;18.67;49.38;100869.84;4958662;27;107439;-69
2023/01/07 10:36:58;;;;;;;;;;;;;;;18.57;49.34;100862.75;4979373;27;97952;-69
2023/01/07 10:39:34;;;;;;;;;;;;;;;18.51;49.51;100856.59;4993269;27;98908;-67
2023/01/07 10:42:12;;;;;;;;;;;;;;;18.44;49.54;100845.31;4990873;27;118571;-68
2023/01/07 10:44:49;;;;;;;;;;;;;;;18.37;49.57;100843.00;4979911;27;98247;-69
2023/01/07 10:47:53;;;;;;;;;;;;;;;18.35;49.57;100844.44;4992383;27;116008;-68
2023/01/07 10:50:21;;;;;;;;;;;;;;;18.35;49.33;100855.34;4995144;27;99767;-68
2023/01/07 10:53:09;;;;;;;;;;;;;;;18.37;49.33;100848.47;4998105;27;109688;-68
2023/01/07 10:56:17;;;;;;;;;;;;;;;18.40;49.16;100844.31;4983760;27;107373;-70
2023/01/07 10:58:44;;;;;;;;;;;;;;;18.37;49.38;100843.00;4982463;27;98131;-68
2023/01/07 11:01:22;;;;;;;;;;;;;;;18.32;49.33;100842.34;4982072;27;118370;-68
2023/01/07 11:03:50;;;;;;;;;;;;;;;18.24;49.43;100838.44;4982367;27;98326;-69
2023/01/07 11:06:16;;;;;;;;;;;;;;;18.20;49.51;100833.91;5000378;27;97955;-69
2023/01/07 11:08:42;;;;;;;;;;;;;;;18.13;49.65;100829.69;4983112;27;98274;-69
2023/01/07 11:11:14;;;;;;;;;;;;;;;18.10;49.59;100832.22;4966048;27;99776;-69
2023/01/07 11:13:40;;;;;;;;;;;;;;;18.04;49.73;100828.81;4981619;27;98254;-69
2023/01/07 11:16:09;;;;;;;;;;;;;;;17.99;49.49;100809.03;4980245;27;99284;-68
2023/01/07 11:18:46;;;;;;;;;;;;;;;17.95;49.59;100817.00;4981786;27;99912;-69
2023/01/07 11:21:11;;;;;;;;;;;;;;;17.91;49.54;100822.28;4982274;27;109509;-69
2023/01/07 11:23:39;;;;;;;;;;;;;;;17.87;49.56;100817.75;4981738;27;98036;-68
2023/01/07 11:26:21;;;;;;;;;;;;;;;17.83;49.70;100812.09;4981349;27;98091;-68
2023/01/07 11:29:01;;;;;;;;;;;;;;;17.80;49.60;100807.28;4997014;27;119620;-69
2023/01/07 11:31:56;;;;;;;;;;;;;;;17.77;49.63;100804.38;4998717;27;100011;-68
2023/01/07 11:34:33;;;;;;;;;;;;;;;17.73;49.67;100806.88;4982963;27;104670;-68
2023/01/07 11:36:59;;;;;;;;;;;;;;;17.71;49.83;100798.16;4964460;27;100305;-68
2023/01/07 11:39:28;;;;;;;;;;;;;;;17.71;49.59;100794.63;4981558;27;98845;-69
2023/01/07 11:41:58;;;;;;;;;;;;;;;17.72;49.75;100797.03;4997036;27;98490;-69
2023/01/07 11:44:25;;;;;;;;;;;;;;;17.75;49.66;100798.41;4963452;27;107787;-68
2023/01/07 11:46:51;;;;;;;;;;;;;;;17.81;49.57;100795.25;4981974;27;98150;-68
2023/01/07 11:49:23;;;;;;;;;;;;;;;17.84;49.23;100791.91;4965004;27;99447;-70
2023/01/07 11:51:49;;;;;;;;;;;;;;;17.91;49.25;100783.28;4964790;27;98439;-68
2023/01/07 11:54:25;;;;;;;;;;;;;;;17.95;49.42;100780.75;4959402;27;127863;-69
2023/01/07 11:56:52;;;;;;;;;;;;;;;17.97;49.39;100779.34;4981056;27;98106;-68
2023/01/07 11:59:18;;;;;;;;;;;;;;;17.99;49.44;100779.81;4966146;27;100159;-68
2023/01/07 12:01:51;;;;;;;;;;;;;;;17.97;49.45;100771.16;4997561;27;98354;-68
2023/01/07 12:04:25;;;;;;;;;;;;;;;17.97;49.30;100764.91;4979552;27;98052;-69
2023/01/07 12:07:23;;;;;;;;;;;;;;;17.95;49.29;100754.28;4981186;27;98385;-68
2023/01/07 12:09:49;;;;;;;;;;;;;;;17.91;49.43;100762.28;4959011;27;98672;-68
2023/01/07 12:12:33;;;;;;;;;;;;;;;17.90;49.50;100766.13;4977307;27;101342;-69
2023/01/07 12:15:16;;;;;;;;;;;;;;;17.89;49.52;100767.25;4980996;27;98184;-68
2023/01/07 12:17:44;;;;;;;;;;;;;;;17.86;49.51;100756.16;4997491;27;98402;-68
2023/01/07 12:20:30;;;;;;;;;;;;;;;17.81;49.53;100751.63;4995468;27;121922;-68
2023/01/07 12:23:34;;;;;;;;;;;;;;;17.75;49.49;100746.59;4977911;27;122902;-68
2023/01/07 12:26:05;;;;;;;;;;;;;;;17.68;49.77;100744.25;5014555;27;98079;-68
2023/01/07 12:28:53;;;;;;;;;;;;;;;17.62;49.83;100735.41;5014287;27;98873;-68
2023/01/07 12:31:28;;;;;;;;;;;;;;;17.57;49.83;100724.63;4996457;27;126125;-68
2023/01/07 12:34:39;;;;;;;;;;;;;;;17.56;49.72;100735.81;4997082;27;115190;-68
2023/01/07 12:37:20;;;;;;;;;;;;;;;17.55;49.76;100728.78;5013198;27;98483;-68
2023/01/07 12:39:46;;;;;;;;;;;;;;;17.54;49.83;100727.16;4996992;27;111596;-68
2023/01/07 12:42:15;;;;;;;;;;;;;;;17.51;49.68;100727.78;4961966;27;129129;-68
2023/01/07 12:44:48;;;;;;;;;;;;;;;17.49;49.83;100728.09;4961254;27;115584;-69
2023/01/07 12:47:38;;;;;;;;;;;;;;;17.45;49.82;100724.38;4995254;27;99346;-68